This is the latest recevied weather packets stored in our database for station/object K4HOG. If no packets are shown the sender has not sent any weather packets the latest 10 day(s).
| Time | Temp. | Humidity | Pressure | Rain* | Wind** | Luminosity | Snow |
|---|---|---|---|---|---|---|---|
| 1777416701 | 28.33° C | 57% | 1016.9 hPa | 0 mm | - | 48 W/m² | - |
| 1777416398 | 28.89° C | 57% | 1017 hPa | 0 mm | - | 51 W/m² | - |
| 1777416098 | 28.89° C | 57% | 1017.2 hPa | 0 mm | - | 56 W/m² | - |
| 1777415792 | 28.89° C | 57% | 1017.1 hPa | 0 mm | - | 89 W/m² | - |
| 1777415489 | 29.44° C | 55% | 1017 hPa | 0 mm | - | 182 W/m² | - |
| 1777415185 | 30° C | 54% | 1016.8 hPa | 0 mm | - | 195 W/m² | - |
| 1777414880 | 30.56° C | 53% | 1016.7 hPa | 0 mm | - | 223 W/m² | - |
| 1777414579 | 30.56° C | 51% | 1016.7 hPa | 0 mm | - | 261 W/m² | - |
| 1777414274 | 30.56° C | 51% | 1016.8 hPa | 0 mm | - | 277 W/m² | - |
| 1777413970 | 30° C | 52% | 1017 hPa | 0 mm | - | 304 W/m² | - |
| 1777413665 | 30° C | 52% | 1017 hPa | 0 mm | - | 129 W/m² | - |
| 1777413361 | 30° C | 52% | 1016.8 hPa | 0 mm | - | 116 W/m² | - |
| 1777413057 | 30° C | 51% | 1017 hPa | 0 mm | - | 109 W/m² | - |
| 1777412752 | 30.56° C | 51% | 1016.9 hPa | 0 mm | - | 107 W/m² | - |
| 1777412450 | 31.11° C | 49% | 1016.8 hPa | 0 mm | - | 168 W/m² | - |
| 1777412149 | 31.67° C | 48% | 1016.7 hPa | 0 mm | - | 421 W/m² | - |
| 1777411844 | 31.11° C | 49% | 1016.8 hPa | 0 mm | - | 250 W/m² | - |
| 1777411544 | 30.56° C | 51% | 1016.8 hPa | 0 mm | - | 493 W/m² | - |
| 1777411244 | 30° C | 53% | 1016.7 hPa | 0 mm | - | 420 W/m² | - |
| 1777410938 | 30° C | 54% | 1017 hPa | 0 mm | - | 291 W/m² | - |
| 1777410638 | 30° C | 52% | 1017.1 hPa | 0 mm | - | 100 W/m² | - |
| 1777410334 | 30.56° C | 50% | 1017.1 hPa | 0 mm | - | 108 W/m² | - |
| 1777410027 | 31.11° C | 49% | 1017.1 hPa | 0 mm | - | 116 W/m² | - |
| 1777409722 | 30° C | 49% | 1017.1 hPa | 0 mm | - | 594 W/m² | - |
| 1777409419 | 29.44° C | 52% | 1017.2 hPa | 0 mm | - | 209 W/m² | - |
* Rain latest hour (hover to see other rain measurements)
** Current wind speed in m/s (hover to see current wind gust speed)